Terminal Aerodrome Forecast
Issued by NWS El Paso, TX

Home | Current Version | Previous Version | Text Only | Print | Product List | Glossary On
Versions: 1 2 3 4 5 6 7 8 9 10 11 12 13 14
519
FTUS44 KEPZ 231125
TAFELP
TAF
KELP 231125Z 2312/2412 14005KT P6SM FEW140
     FM232100 15006KT P6SM FEW100 FEW130
     FM240700 20007KT P6SM FEW130=

USA.gov is the U.S. government's official web portal to all federal, state and local government web resources and services.